Clair Mel City, Florida
Current Conditions -  °F | °C
As of 1:55 PM on Tuesday 27 Jan 2015 (Local Time) from KVDF Reporting Station
Scattered Clouds Scattered Clouds  
Wind Chill: 70°   Ceiling: Unl
Heat Index: 70°   Visibility: 10mi
Dew Point: 46°   Wind: 9mph
Humidity: 43%   Direction: 290°WNW
Pressure: 30"   Gusts: 21mph
Location:  27.9256°N, 82.3736°W
Report Text: KVDF 271855Z AUTO 29008G18KT 10SM SCT045 21/08 A3000 RMK AO2
Loading
Personal Weather Stations






























Interactive Weather Map New forecast layout! Learn more

10-Day Weather Forecast

Advertisements
Track Severe Weather on mobile